Principe Do Alentejo — CUMJ3 — position and weather

sailwx.info

Track history (hours):
 
Tides and Currents Weather Stations Pressure Air Temp Water Temp Dewpoint Dewpoint Depression Visibility Wind Speed Wind Dir Waves Ship Positions

Principe Do Alentejo

Last reported at 2018-Jun-21 09:44 UTC. Time now 2018-Jun-21 11:53 UTC.
Position N 38°26' W 009°07'.

Length 16 m.

MMSI: 263412890.

Date/timePositionNaut miles runAvg speedWind from/ knotsBaromVisibWave heightAir tempDewpointWater temp
2018-Jun-21 09:44N 38°26' W 009°07'0 0.0
2018-Jun-21 09:30N 38°26' W 009°07'0 0.0
2018-Jun-21 09:00N 38°26' W 009°07'2 4.8
2018-Jun-21 08:30N 38°24' W 009°05'5 9.3
2018-Jun-21 08:01N 38°20' W 009°04'4 9.0
2018-Jun-21 07:31N 38°16' W 009°02'4 8.9
2018-Jun-21 07:00N 38°11' W 009°00'5 9.2
2018-Jun-21 06:31N 38°07' W 008°58'4 8.9
2018-Jun-21 06:00N 38°03' W 008°57'4 8.9
2018-Jun-21 05:31N 37°59' W 008°55'2 4.7
2018-Jun-21 05:01N 37°57' W 008°52'0 0.0
2018-Jun-20 11:36N 37°57' W 008°52'0 0.0
2018-Jun-20 11:30N 37°57' W 008°52'0 0.0
2018-Jun-20 11:00N 37°57' W 008°52'0 0.0
2018-Jun-20 10:30N 37°57' W 008°52'0 0.0
2018-Jun-20 10:00N 37°57' W 008°52'0 0.1
2018-Jun-20 09:30N 37°57' W 008°52'0 0.0
2018-Jun-20 09:00N 37°57' W 008°52'0 0.0
2018-Jun-20 08:30N 37°57' W 008°52'0 0.6
2018-Jun-20 08:00N 37°57' W 008°52'2 4.6
2018-Jun-20 07:30N 37°59' W 008°52'0 0.3
2018-Jun-20 07:00N 37°59' W 008°52'0 0.2
2018-Jun-20 06:30N 37°59' W 008°52'0 0.3
2018-Jun-20 06:00N 37°59' W 008°52'0 0.1
2018-Jun-20 05:30N 37°59' W 008°52'1 2.5
2018-Jun-20 05:00N 38°01' W 008°52'0 0.2
2018-Jun-20 04:30N 38°01' W 008°52'0 0.2
2018-Jun-20 04:00N 38°01' W 008°52'0 0.0
2018-Jun-20 03:31N 38°01' W 008°52'1 1.9
2018-Jun-20 03:00N 37°60' W 008°52'2 4.4
2018-Jun-20 02:30N 37°58' W 008°54'2 3.4
2018-Jun-20 02:00N 37°57' W 008°52'0 0.2
2018-Jun-20 01:30N 37°57' W 008°52'0 0.0
2018-Jun-20 00:59N 37°57' W 008°52'0 0.0
2018-Jun-20 00:30N 37°57' W 008°52'0 0.0
2018-Jun-20 00:00N 37°57' W 008°52'0 0.0
2018-Jun-19 23:30N 37°57' W 008°52'0 0.0
2018-Jun-19 23:00N 37°57' W 008°52'0 0.0
2018-Jun-19 22:30N 37°57' W 008°52'0 0.0
2018-Jun-19 22:00N 37°57' W 008°52'0 0.0
2018-Jun-19 21:31N 37°57' W 008°52'0 0.0
2018-Jun-19 21:00N 37°57' W 008°52'0 0.0
2018-Jun-19 20:30N 37°57' W 008°52'0 0.0
2018-Jun-19 20:00N 37°57' W 008°52'0 0.0
2018-Jun-19 19:30N 37°57' W 008°52'0 0.0
2018-Jun-19 19:00N 37°57' W 008°52'0 0.0
2018-Jun-19 18:30N 37°57' W 008°52'0 0.0
2018-Jun-19 18:00N 37°57' W 008°52'0 0.0
2018-Jun-19 17:30N 37°57' W 008°52'0 0.0
2018-Jun-19 17:00N 37°57' W 008°52'0 0.0
2018-Jun-19 16:30N 37°57' W 008°52'0 0.0
2018-Jun-19 15:59N 37°57' W 008°52'0 0.0
2018-Jun-19 15:30N 37°57' W 008°52'0 0.0
2018-Jun-19 15:00N 37°57' W 008°52'0 0.0
2018-Jun-19 14:30N 37°57' W 008°52'0 0.0
2018-Jun-19 14:01N 37°57' W 008°52'0 0.0
2018-Jun-19 13:30N 37°57' W 008°52'0 0.0
2018-Jun-19 13:00N 37°57' W 008°52'0 0.2
2018-Jun-19 12:30N 37°57' W 008°52'0 0.0
2018-Jun-19 12:00N 37°57' W 008°52'0 0.0
2018-Jun-19 11:30N 37°57' W 008°52'0 0.0
2018-Jun-19 11:01N 37°57' W 008°52'0 1.0
2018-Jun-19 10:30N 37°57' W 008°52'3 5.7
2018-Jun-19 10:00N 37°59' W 008°53'0 0.5
2018-Jun-19 09:30N 37°59' W 008°53'0 0.3
2018-Jun-19 09:00N 37°59' W 008°53'0 0.5
2018-Jun-19 08:30N 37°60' W 008°53'0 0.5
2018-Jun-19 08:00N 37°60' W 008°52'0 0.2
2018-Jun-19 07:30N 37°60' W 008°52'0 0.1
2018-Jun-19 07:00N 37°60' W 008°52'1 2.1
2018-Jun-19 06:30N 38°01' W 008°51'0 0.5
2018-Jun-19 06:00N 38°00' W 008°51'0 0.4
2018-Jun-19 05:30N 38°00' W 008°51'0 0.3
2018-Jun-19 05:00N 38°00' W 008°51'0 0.3
2018-Jun-19 04:30N 38°00' W 008°51'0 0.1
2018-Jun-19 04:00N 38°00' W 008°51'3 5.6
2018-Jun-19 03:31N 37°58' W 008°54'4 7.4
2018-Jun-19 03:00N 37°55' W 008°53'4 8.3
2018-Jun-19 02:31N 37°50' W 008°53'4 8.3
2018-Jun-19 02:00N 37°46' W 008°52'4 8.0
2018-Jun-19 01:30N 37°42' W 008°51'4 8.0
2018-Jun-19 01:01N 37°38' W 008°50'4 8.0
2018-Jun-19 00:30N 37°34' W 008°50'3 7.0
2018-Jun-19 00:00N 37°38' W 008°50'4 7.3
2018-Jun-18 23:30N 37°41' W 008°50'4 7.7
2018-Jun-18 23:00N 37°45' W 008°50'4 8.5
2018-Jun-18 22:30N 37°49' W 008°51'4 8.8
2018-Jun-18 22:01N 37°54' W 008°51'3 6.6
2018-Jun-18 21:30N 37°57' W 008°52'0 0.1
2018-Jun-18 21:01N 37°57' W 008°52'  
2018-Jun-15 10:29N 37°57' W 008°52'2 4.4
2018-Jun-15 10:00N 37°59' W 008°53'1 3.0
2018-Jun-15 09:30N 38°00' W 008°52'0 0.2
2018-Jun-15 09:00N 38°00' W 008°52'0 0.0
2018-Jun-15 08:30N 38°00' W 008°52'0 0.0
2018-Jun-15 08:00N 38°00' W 008°52'0 0.2
2018-Jun-15 07:30N 38°00' W 008°52'1 1.4
2018-Jun-15 07:00N 37°60' W 008°52'0 0.2
2018-Jun-15 06:30N 37°60' W 008°52'0 0.4
2018-Jun-15 06:00N 38°00' W 008°52'0 0.1
2018-Jun-15 05:30N 38°00' W 008°52'0 0.2
2018-Jun-15 05:00N 38°00' W 008°52'2 4.1
2018-Jun-15 04:30N 37°59' W 008°54'1 2.3
2018-Jun-15 04:00N 37°60' W 008°53'4 7.0
2018-Jun-15 03:30N 38°02' W 008°50'4 7.7
2018-Jun-15 03:00N 38°06' W 008°49'2 4.6
2018-Jun-15 02:30N 38°08' W 008°48'3 5.4
2018-Jun-15 02:00N 38°06' W 008°49'2 3.4
2018-Jun-15 01:30N 38°04' W 008°50'0 0.0
2018-Jun-15 01:00N 38°04' W 008°50'0 0.1
2018-Jun-15 00:30N 38°04' W 008°50'0 0.1
2018-Jun-15 00:00N 38°04' W 008°50'2 4.9
2018-Jun-14 23:30N 38°02' W 008°51'3 6.4
2018-Jun-14 23:00N 37°59' W 008°53'3 6.6
2018-Jun-14 22:30N 37°56' W 008°53'3 6.6
2018-Jun-14 22:00N 37°54' W 008°49'3 6.6
2018-Jun-14 21:30N 37°56' W 008°53'1 3.0
2018-Jun-14 21:00N 37°57' W 008°52'0 0.0
2018-Jun-14 20:30N 37°57' W 008°52'0 0.0
2018-Jun-14 20:00N 37°57' W 008°52'0 0.0
2018-Jun-14 19:30N 37°57' W 008°52'0 0.0
2018-Jun-14 19:00N 37°57' W 008°52'0 0.0
2018-Jun-14 18:30N 37°57' W 008°52'0 0.0
2018-Jun-14 17:59N 37°57' W 008°52'0 0.0
2018-Jun-14 17:30N 37°57' W 008°52'0 0.0
2018-Jun-14 17:00N 37°57' W 008°52'0 0.0
2018-Jun-14 16:30N 37°57' W 008°52'0 0.0
2018-Jun-14 16:00N 37°57' W 008°52'0 0.0
2018-Jun-14 15:30N 37°57' W 008°52'0 0.0
2018-Jun-14 15:00N 37°57' W 008°52'0 0.0
2018-Jun-14 14:30N 37°57' W 008°52'0 0.0
2018-Jun-14 14:00N 37°57' W 008°52'0 0.0
2018-Jun-14 13:30N 37°57' W 008°52'0 0.0
2018-Jun-14 13:00N 37°57' W 008°52'0 0.0
2018-Jun-14 12:30N 37°57' W 008°52'0 0.0
2018-Jun-14 12:00N 37°57' W 008°52'0 0.0
2018-Jun-14 11:30N 37°57' W 008°52'0 0.0
2018-Jun-14 11:00N 37°57' W 008°52'0 0.0
2018-Jun-14 10:29N 37°57' W 008°52'0 0.0
2018-Jun-14 10:00N 37°57' W 008°52'0 0.0
2018-Jun-14 09:29N 37°57' W 008°52'0 0.0
2018-Jun-14 09:00N 37°57' W 008°52'0 0.0
2018-Jun-14 08:30N 37°57' W 008°52'0 0.0
2018-Jun-14 08:00N 37°57' W 008°52'0 0.0
2018-Jun-14 07:30N 37°57' W 008°52'0 0.0
2018-Jun-14 07:00N 37°57' W 008°52'0 0.0
2018-Jun-14 06:30N 37°57' W 008°52'3 6.5
2018-Jun-14 06:00N 37°54' W 008°50'3 6.5
2018-Jun-14 05:30N 37°51' W 008°50'3 5.0
2018-Jun-14 05:00N 37°49' W 008°51'4 7.5
2018-Jun-14 04:30N 37°45' W 008°50'0 0.5
2018-Jun-14 04:00N 37°45' W 008°50'3 6.8
2018-Jun-14 03:30N 37°48' W 008°51'0 0.1
2018-Jun-14 03:00N 37°48' W 008°51'0 0.2
2018-Jun-14 02:30N 37°48' W 008°51'2 4.3
2018-Jun-14 02:00N 37°50' W 008°50'4 8.2
2018-Jun-14 01:30N 37°54' W 008°51'3 5.9
2018-Jun-14 01:00N 37°57' W 008°52'0 0.1
2018-Jun-14 00:30N 37°57' W 008°52'0 0.0
2018-Jun-14 00:00N 37°57' W 008°52'0 0.0
2018-Jun-13 23:30N 37°57' W 008°52'0 0.0
2018-Jun-13 23:00N 37°57' W 008°52'0 0.0
2018-Jun-13 22:30N 37°57' W 008°52'0 0.0
2018-Jun-13 22:00N 37°57' W 008°52'0 0.0
2018-Jun-13 21:30N 37°57' W 008°52'0 0.0
2018-Jun-13 21:00N 37°57' W 008°52'0 0.0
2018-Jun-13 20:30N 37°57' W 008°52'0 0.0
2018-Jun-13 20:00N 37°57' W 008°52'0 0.0
2018-Jun-13 19:30N 37°57' W 008°52'0 0.0
2018-Jun-13 19:00N 37°57' W 008°52'0 0.0
2018-Jun-13 18:30N 37°57' W 008°52'0 0.0
2018-Jun-13 18:00N 37°57' W 008°52'0 0.0
2018-Jun-13 17:30N 37°57' W 008°52'0 0.0
2018-Jun-13 17:00N 37°57' W 008°52'0 0.0
2018-Jun-13 16:30N 37°57' W 008°52'0 0.0
2018-Jun-13 16:00N 37°57' W 008°52'0 0.0
2018-Jun-13 15:30N 37°57' W 008°52'0 0.0
2018-Jun-13 15:00N 37°57' W 008°52'0 0.0
2018-Jun-13 14:30N 37°57' W 008°52'0 0.0
2018-Jun-13 14:00N 37°57' W 008°52'0 0.0
2018-Jun-13 13:30N 37°57' W 008°52'0 0.0
2018-Jun-13 13:00N 37°57' W 008°52'0 0.0
2018-Jun-13 12:30N 37°57' W 008°52'0 0.0
2018-Jun-13 12:00N 37°57' W 008°52'0 0.0
2018-Jun-13 11:30N 37°57' W 008°52'0 0.0
2018-Jun-13 11:00N 37°57' W 008°52'0 0.0
2018-Jun-13 10:30N 37°57' W 008°52'0 0.0
2018-Jun-13 10:00N 37°57' W 008°52'0 0.0
2018-Jun-13 09:30N 37°57' W 008°52'0 0.0
2018-Jun-13 09:00N 37°57' W 008°52'0 0.1
2018-Jun-13 08:30N 37°57' W 008°52'0 0.0
2018-Jun-13 08:00N 37°57' W 008°52'3 6.3
2018-Jun-13 07:30N 37°54' W 008°53'4 7.4
2018-Jun-13 07:00N 37°50' W 008°51'2 3.3
2018-Jun-13 06:30N 37°49' W 008°51'0 0.7
2018-Jun-13 06:00N 37°49' W 008°51'0 0.5
2018-Jun-13 05:30N 37°49' W 008°51'1 1.5
2018-Jun-13 05:00N 37°49' W 008°51'1 1.6
2018-Jun-13 04:30N 37°50' W 008°50'4 7.5
2018-Jun-13 04:00N 37°53' W 008°50'2 4.5
2018-Jun-13 03:30N 37°51' W 008°50'2 4.6
2018-Jun-13 03:00N 37°49' W 008°51'3 6.6
2018-Jun-13 02:30N 37°46' W 008°50'3 6.0
2018-Jun-13 02:00N 37°43' W 008°50'3 6.0
2018-Jun-13 01:30N 37°40' W 008°50'3 5.7
2018-Jun-13 00:59N 37°37' W 008°50'2 4.2
2018-Jun-13 00:26N 37°34' W 008°50'3 7.9
2018-Jun-13 00:00N 37°38' W 008°50'4 8.1
2018-Jun-12 23:30N 37°42' W 008°49'4 7.3
2018-Jun-12 23:00N 37°45' W 008°51'4 8.4
2018-Jun-12 22:30N 37°50' W 008°51'4 8.3
2018-Jun-12 22:00N 37°54' W 008°52'3 6.9
2018-Jun-12 21:30N 37°57' W 008°52'0 0.0
2018-Jun-12 21:00N 37°57' W 008°52'0 0.0
2018-Jun-12 09:09N 37°57' W 008°52'0 0.0
2018-Jun-12 09:00N 37°57' W 008°52'0 0.2
2018-Jun-12 08:30N 37°57' W 008°52'0 0.0
2018-Jun-12 08:00N 37°57' W 008°52'0 0.0
2018-Jun-12 07:30N 37°57' W 008°52'0 0.0
2018-Jun-12 07:00N 37°57' W 008°52'0 0.0
2018-Jun-12 06:30N 37°57' W 008°52'3 5.5
2018-Jun-12 06:00N 37°55' W 008°51'4 8.1
2018-Jun-12 05:30N 37°51' W 008°51'4 7.8
2018-Jun-12 05:01N 37°47' W 008°51'4 7.7
2018-Jun-12 04:30N 37°43' W 008°51'4 7.7
2018-Jun-12 04:00N 37°39' W 008°50'4 7.7
2018-Jun-12 03:30N 37°35' W 008°50'1 0.6
2018-Jun-12 02:22N 37°34' W 008°50'0 1.0
2018-Jun-12 01:59N 37°35' W 008°50'0 0.4
2018-Jun-12 01:28N 37°35' W 008°50'0 0.6
2018-Jun-12 01:00N 37°35' W 008°50'2 3.1
2018-Jun-12 00:20N 37°33' W 008°49'2 4.9
2018-Jun-11 23:57N 37°35' W 008°50'3 7.0
2018-Jun-11 23:30N 37°38' W 008°50'4 8.0
2018-Jun-11 23:00N 37°42' W 008°49'3 6.5
2018-Jun-11 22:30N 37°45' W 008°50'4 7.7
2018-Jun-11 22:00N 37°49' W 008°51'4 7.1
2018-Jun-11 21:30N 37°52' W 008°51'4 8.1
2018-Jun-11 21:00N 37°56' W 008°52'1 1.9
2018-Jun-11 20:31N 37°57' W 008°52'0 0.0
2018-Jun-11 20:01N 37°57' W 008°52'0 0.0
2018-Jun-11 19:30N 37°57' W 008°52'0 0.0
2018-Jun-11 19:00N 37°57' W 008°52'0 0.0
2018-Jun-11 18:31N 37°57' W 008°52'0 0.0
2018-Jun-11 18:00N 37°57' W 008°52'0 0.0
2018-Jun-11 17:30N 37°57' W 008°52'0 0.0
2018-Jun-11 17:00N 37°57' W 008°52'0 0.0
2018-Jun-11 16:30N 37°57' W 008°52'0 0.0
2018-Jun-11 16:01N 37°57' W 008°52'0 0.0
2018-Jun-11 15:30N 37°57' W 008°52'0 0.0
2018-Jun-11 15:00N 37°57' W 008°52'0 0.0
2018-Jun-11 14:30N 37°57' W 008°52'0 0.0
2018-Jun-11 14:01N 37°57' W 008°52'0 0.0
2018-Jun-11 13:30N 37°57' W 008°52'0 0.0
2018-Jun-11 13:00N 37°57' W 008°52'0 0.0
2018-Jun-11 12:30N 37°57' W 008°52'0 0.0
2018-Jun-11 12:00N 37°57' W 008°52'0 0.0
2018-Jun-11 11:31N 37°57' W 008°52'0 0.0
2018-Jun-11 11:00N 37°57' W 008°52'0 0.0
2018-Jun-11 10:30N 37°57' W 008°52'0 0.0
2018-Jun-11 10:00N 37°57' W 008°52'  
Track history (hours):
 
Tides and Currents Weather Stations Pressure Air Temp Water Temp Dewpoint Dewpoint Depression Visibility Wind Speed Wind Dir Waves Ship Positions

Principe Do Alentejo

Last reported at 2018-Jun-21 09:44 UTC. Time now 2018-Jun-21 11:53 UTC.
Position N 38°26' W 009°07'.

Length 16 m.

MMSI: 263412890.

Date/timePositionNaut miles runAvg speedWind from/ knotsBaromVisibWave heightAir tempDewpointWater temp
2018-Jun-21 09:44N 38°26' W 009°07'0 0.0
2018-Jun-21 09:30N 38°26' W 009°07'0 0.0
2018-Jun-21 09:00N 38°26' W 009°07'2 4.8
2018-Jun-21 08:30N 38°24' W 009°05'5 9.3
2018-Jun-21 08:01N 38°20' W 009°04'4 9.0
2018-Jun-21 07:31N 38°16' W 009°02'4 8.9
2018-Jun-21 07:00N 38°11' W 009°00'5 9.2
2018-Jun-21 06:31N 38°07' W 008°58'4 8.9
2018-Jun-21 06:00N 38°03' W 008°57'4 8.9
2018-Jun-21 05:31N 37°59' W 008°55'2 4.7
2018-Jun-21 05:01N 37°57' W 008°52'0 0.0
2018-Jun-20 11:36N 37°57' W 008°52'0 0.0
2018-Jun-20 11:30N 37°57' W 008°52'0 0.0
2018-Jun-20 11:00N 37°57' W 008°52'0 0.0
2018-Jun-20 10:30N 37°57' W 008°52'0 0.0
2018-Jun-20 10:00N 37°57' W 008°52'0 0.1
2018-Jun-20 09:30N 37°57' W 008°52'0 0.0
2018-Jun-20 09:00N 37°57' W 008°52'0 0.0
2018-Jun-20 08:30N 37°57' W 008°52'0 0.6
2018-Jun-20 08:00N 37°57' W 008°52'2 4.6
2018-Jun-20 07:30N 37°59' W 008°52'0 0.3
2018-Jun-20 07:00N 37°59' W 008°52'0 0.2
2018-Jun-20 06:30N 37°59' W 008°52'0 0.3
2018-Jun-20 06:00N 37°59' W 008°52'0 0.1
2018-Jun-20 05:30N 37°59' W 008°52'1 2.5
2018-Jun-20 05:00N 38°01' W 008°52'0 0.2
2018-Jun-20 04:30N 38°01' W 008°52'0 0.2
2018-Jun-20 04:00N 38°01' W 008°52'0 0.0
2018-Jun-20 03:31N 38°01' W 008°52'1 1.9
2018-Jun-20 03:00N 37°60' W 008°52'2 4.4
2018-Jun-20 02:30N 37°58' W 008°54'2 3.4
2018-Jun-20 02:00N 37°57' W 008°52'0 0.2
2018-Jun-20 01:30N 37°57' W 008°52'0 0.0
2018-Jun-20 00:59N 37°57' W 008°52'0 0.0
2018-Jun-20 00:30N 37°57' W 008°52'0 0.0
2018-Jun-20 00:00N 37°57' W 008°52'0 0.0
2018-Jun-19 23:30N 37°57' W 008°52'0 0.0
2018-Jun-19 23:00N 37°57' W 008°52'0 0.0
2018-Jun-19 22:30N 37°57' W 008°52'0 0.0
2018-Jun-19 22:00N 37°57' W 008°52'0 0.0
2018-Jun-19 21:31N 37°57' W 008°52'0 0.0
2018-Jun-19 21:00N 37°57' W 008°52'0 0.0
2018-Jun-19 20:30N 37°57' W 008°52'0 0.0
2018-Jun-19 20:00N 37°57' W 008°52'0 0.0
2018-Jun-19 19:30N 37°57' W 008°52'0 0.0
2018-Jun-19 19:00N 37°57' W 008°52'0 0.0
2018-Jun-19 18:30N 37°57' W 008°52'0 0.0
2018-Jun-19 18:00N 37°57' W 008°52'0 0.0
2018-Jun-19 17:30N 37°57' W 008°52'0 0.0
2018-Jun-19 17:00N 37°57' W 008°52'0 0.0
2018-Jun-19 16:30N 37°57' W 008°52'0 0.0
2018-Jun-19 15:59N 37°57' W 008°52'0 0.0
2018-Jun-19 15:30N 37°57' W 008°52'0 0.0
2018-Jun-19 15:00N 37°57' W 008°52'0 0.0
2018-Jun-19 14:30N 37°57' W 008°52'0 0.0
2018-Jun-19 14:01N 37°57' W 008°52'0 0.0
2018-Jun-19 13:30N 37°57' W 008°52'0 0.0
2018-Jun-19 13:00N 37°57' W 008°52'0 0.2
2018-Jun-19 12:30N 37°57' W 008°52'0 0.0
2018-Jun-19 12:00N 37°57' W 008°52'0 0.0
2018-Jun-19 11:30N 37°57' W 008°52'0 0.0
2018-Jun-19 11:01N 37°57' W 008°52'0 1.0
2018-Jun-19 10:30N 37°57' W 008°52'3 5.7
2018-Jun-19 10:00N 37°59' W 008°53'0 0.5
2018-Jun-19 09:30N 37°59' W 008°53'0 0.3
2018-Jun-19 09:00N 37°59' W 008°53'0 0.5
2018-Jun-19 08:30N 37°60' W 008°53'0 0.5
2018-Jun-19 08:00N 37°60' W 008°52'0 0.2
2018-Jun-19 07:30N 37°60' W 008°52'0 0.1
2018-Jun-19 07:00N 37°60' W 008°52'1 2.1
2018-Jun-19 06:30N 38°01' W 008°51'0 0.5
2018-Jun-19 06:00N 38°00' W 008°51'0 0.4
2018-Jun-19 05:30N 38°00' W 008°51'0 0.3
2018-Jun-19 05:00N 38°00' W 008°51'0 0.3
2018-Jun-19 04:30N 38°00' W 008°51'0 0.1
2018-Jun-19 04:00N 38°00' W 008°51'3 5.6
2018-Jun-19 03:31N 37°58' W 008°54'4 7.4
2018-Jun-19 03:00N 37°55' W 008°53'4 8.3
2018-Jun-19 02:31N 37°50' W 008°53'4 8.3
2018-Jun-19 02:00N 37°46' W 008°52'4 8.0
2018-Jun-19 01:30N 37°42' W 008°51'4 8.0
2018-Jun-19 01:01N 37°38' W 008°50'4 8.0
2018-Jun-19 00:30N 37°34' W 008°50'3 7.0
2018-Jun-19 00:00N 37°38' W 008°50'4 7.3
2018-Jun-18 23:30N 37°41' W 008°50'4 7.7
2018-Jun-18 23:00N 37°45' W 008°50'4 8.5
2018-Jun-18 22:30N 37°49' W 008°51'4 8.8
2018-Jun-18 22:01N 37°54' W 008°51'3 6.6
2018-Jun-18 21:30N 37°57' W 008°52'0 0.1
2018-Jun-18 21:01N 37°57' W 008°52'  
2018-Jun-15 10:29N 37°57' W 008°52'2 4.4
2018-Jun-15 10:00N 37°59' W 008°53'1 3.0
2018-Jun-15 09:30N 38°00' W 008°52'0 0.2
2018-Jun-15 09:00N 38°00' W 008°52'0 0.0
2018-Jun-15 08:30N 38°00' W 008°52'0 0.0
2018-Jun-15 08:00N 38°00' W 008°52'0 0.2
2018-Jun-15 07:30N 38°00' W 008°52'1 1.4
2018-Jun-15 07:00N 37°60' W 008°52'0 0.2
2018-Jun-15 06:30N 37°60' W 008°52'0 0.4
2018-Jun-15 06:00N 38°00' W 008°52'0 0.1
2018-Jun-15 05:30N 38°00' W 008°52'0 0.2
2018-Jun-15 05:00N 38°00' W 008°52'2 4.1
2018-Jun-15 04:30N 37°59' W 008°54'1 2.3
2018-Jun-15 04:00N 37°60' W 008°53'4 7.0
2018-Jun-15 03:30N 38°02' W 008°50'4 7.7
2018-Jun-15 03:00N 38°06' W 008°49'2 4.6
2018-Jun-15 02:30N 38°08' W 008°48'3 5.4
2018-Jun-15 02:00N 38°06' W 008°49'2 3.4
2018-Jun-15 01:30N 38°04' W 008°50'0 0.0
2018-Jun-15 01:00N 38°04' W 008°50'0 0.1
2018-Jun-15 00:30N 38°04' W 008°50'0 0.1
2018-Jun-15 00:00N 38°04' W 008°50'2 4.9
2018-Jun-14 23:30N 38°02' W 008°51'3 6.4
2018-Jun-14 23:00N 37°59' W 008°53'3 6.6
2018-Jun-14 22:30N 37°56' W 008°53'3 6.6
2018-Jun-14 22:00N 37°54' W 008°49'3 6.6
2018-Jun-14 21:30N 37°56' W 008°53'1 3.0
2018-Jun-14 21:00N 37°57' W 008°52'0 0.0
2018-Jun-14 20:30N 37°57' W 008°52'0 0.0
2018-Jun-14 20:00N 37°57' W 008°52'0 0.0
2018-Jun-14 19:30N 37°57' W 008°52'0 0.0
2018-Jun-14 19:00N 37°57' W 008°52'0 0.0
2018-Jun-14 18:30N 37°57' W 008°52'0 0.0
2018-Jun-14 17:59N 37°57' W 008°52'0 0.0
2018-Jun-14 17:30N 37°57' W 008°52'0 0.0
2018-Jun-14 17:00N 37°57' W 008°52'0 0.0
2018-Jun-14 16:30N 37°57' W 008°52'0 0.0
2018-Jun-14 16:00N 37°57' W 008°52'0 0.0
2018-Jun-14 15:30N 37°57' W 008°52'0 0.0
2018-Jun-14 15:00N 37°57' W 008°52'0 0.0
2018-Jun-14 14:30N 37°57' W 008°52'0 0.0
2018-Jun-14 14:00N 37°57' W 008°52'0 0.0
2018-Jun-14 13:30N 37°57' W 008°52'0 0.0
2018-Jun-14 13:00N 37°57' W 008°52'0 0.0
2018-Jun-14 12:30N 37°57' W 008°52'0 0.0
2018-Jun-14 12:00N 37°57' W 008°52'0 0.0
2018-Jun-14 11:30N 37°57' W 008°52'0 0.0
2018-Jun-14 11:00N 37°57' W 008°52'0 0.0
2018-Jun-14 10:29N 37°57' W 008°52'0 0.0
2018-Jun-14 10:00N 37°57' W 008°52'0 0.0
2018-Jun-14 09:29N 37°57' W 008°52'0 0.0
2018-Jun-14 09:00N 37°57' W 008°52'0 0.0
2018-Jun-14 08:30N 37°57' W 008°52'0 0.0
2018-Jun-14 08:00N 37°57' W 008°52'0 0.0
2018-Jun-14 07:30N 37°57' W 008°52'0 0.0
2018-Jun-14 07:00N 37°57' W 008°52'0 0.0
2018-Jun-14 06:30N 37°57' W 008°52'3 6.5
2018-Jun-14 06:00N 37°54' W 008°50'3 6.5
2018-Jun-14 05:30N 37°51' W 008°50'3 5.0
2018-Jun-14 05:00N 37°49' W 008°51'4 7.5
2018-Jun-14 04:30N 37°45' W 008°50'0 0.5
2018-Jun-14 04:00N 37°45' W 008°50'3 6.8
2018-Jun-14 03:30N 37°48' W 008°51'0 0.1
2018-Jun-14 03:00N 37°48' W 008°51'0 0.2
2018-Jun-14 02:30N 37°48' W 008°51'2 4.3
2018-Jun-14 02:00N 37°50' W 008°50'4 8.2
2018-Jun-14 01:30N 37°54' W 008°51'3 5.9
2018-Jun-14 01:00N 37°57' W 008°52'0 0.1
2018-Jun-14 00:30N 37°57' W 008°52'0 0.0
2018-Jun-14 00:00N 37°57' W 008°52'0 0.0
2018-Jun-13 23:30N 37°57' W 008°52'0 0.0
2018-Jun-13 23:00N 37°57' W 008°52'0 0.0
2018-Jun-13 22:30N 37°57' W 008°52'0 0.0
2018-Jun-13 22:00N 37°57' W 008°52'0 0.0
2018-Jun-13 21:30N 37°57' W 008°52'0 0.0
2018-Jun-13 21:00N 37°57' W 008°52'0 0.0
2018-Jun-13 20:30N 37°57' W 008°52'0 0.0
2018-Jun-13 20:00N 37°57' W 008°52'0 0.0
2018-Jun-13 19:30N 37°57' W 008°52'0 0.0
2018-Jun-13 19:00N 37°57' W 008°52'0 0.0
2018-Jun-13 18:30N 37°57' W 008°52'0 0.0
2018-Jun-13 18:00N 37°57' W 008°52'0 0.0
2018-Jun-13 17:30N 37°57' W 008°52'0 0.0
2018-Jun-13 17:00N 37°57' W 008°52'0 0.0
2018-Jun-13 16:30N 37°57' W 008°52'0 0.0
2018-Jun-13 16:00N 37°57' W 008°52'0 0.0
2018-Jun-13 15:30N 37°57' W 008°52'0 0.0
2018-Jun-13 15:00N 37°57' W 008°52'0 0.0
2018-Jun-13 14:30N 37°57' W 008°52'0 0.0
2018-Jun-13 14:00N 37°57' W 008°52'0 0.0
2018-Jun-13 13:30N 37°57' W 008°52'0 0.0
2018-Jun-13 13:00N 37°57' W 008°52'0 0.0
2018-Jun-13 12:30N 37°57' W 008°52'0 0.0
2018-Jun-13 12:00N 37°57' W 008°52'0 0.0
2018-Jun-13 11:30N 37°57' W 008°52'0 0.0
2018-Jun-13 11:00N 37°57' W 008°52'0 0.0
2018-Jun-13 10:30N 37°57' W 008°52'0 0.0
2018-Jun-13 10:00N 37°57' W 008°52'0 0.0
2018-Jun-13 09:30N 37°57' W 008°52'0 0.0
2018-Jun-13 09:00N 37°57' W 008°52'0 0.1
2018-Jun-13 08:30N 37°57' W 008°52'0 0.0
2018-Jun-13 08:00N 37°57' W 008°52'3 6.3
2018-Jun-13 07:30N 37°54' W 008°53'4 7.4
2018-Jun-13 07:00N 37°50' W 008°51'2 3.3
2018-Jun-13 06:30N 37°49' W 008°51'0 0.7
2018-Jun-13 06:00N 37°49' W 008°51'0 0.5
2018-Jun-13 05:30N 37°49' W 008°51'1 1.5
2018-Jun-13 05:00N 37°49' W 008°51'1 1.6
2018-Jun-13 04:30N 37°50' W 008°50'4 7.5
2018-Jun-13 04:00N 37°53' W 008°50'2 4.5
2018-Jun-13 03:30N 37°51' W 008°50'2 4.6
2018-Jun-13 03:00N 37°49' W 008°51'3 6.6
2018-Jun-13 02:30N 37°46' W 008°50'3 6.0
2018-Jun-13 02:00N 37°43' W 008°50'3 6.0
2018-Jun-13 01:30N 37°40' W 008°50'3 5.7
2018-Jun-13 00:59N 37°37' W 008°50'2 4.2
2018-Jun-13 00:26N 37°34' W 008°50'3 7.9
2018-Jun-13 00:00N 37°38' W 008°50'4 8.1
2018-Jun-12 23:30N 37°42' W 008°49'4 7.3
2018-Jun-12 23:00N 37°45' W 008°51'4 8.4
2018-Jun-12 22:30N 37°50' W 008°51'4 8.3
2018-Jun-12 22:00N 37°54' W 008°52'3 6.9
2018-Jun-12 21:30N 37°57' W 008°52'0 0.0
2018-Jun-12 21:00N 37°57' W 008°52'0 0.0
2018-Jun-12 09:09N 37°57' W 008°52'0 0.0
2018-Jun-12 09:00N 37°57' W 008°52'0 0.2
2018-Jun-12 08:30N 37°57' W 008°52'0 0.0
2018-Jun-12 08:00N 37°57' W 008°52'0 0.0
2018-Jun-12 07:30N 37°57' W 008°52'0 0.0
2018-Jun-12 07:00N 37°57' W 008°52'0 0.0
2018-Jun-12 06:30N 37°57' W 008°52'3 5.5
2018-Jun-12 06:00N 37°55' W 008°51'4 8.1
2018-Jun-12 05:30N 37°51' W 008°51'4 7.8
2018-Jun-12 05:01N 37°47' W 008°51'4 7.7
2018-Jun-12 04:30N 37°43' W 008°51'4 7.7
2018-Jun-12 04:00N 37°39' W 008°50'4 7.7
2018-Jun-12 03:30N 37°35' W 008°50'1 0.6
2018-Jun-12 02:22N 37°34' W 008°50'0 1.0
2018-Jun-12 01:59N 37°35' W 008°50'0 0.4
2018-Jun-12 01:28N 37°35' W 008°50'0 0.6
2018-Jun-12 01:00N 37°35' W 008°50'2 3.1
2018-Jun-12 00:20N 37°33' W 008°49'2 4.9
2018-Jun-11 23:57N 37°35' W 008°50'3 7.0
2018-Jun-11 23:30N 37°38' W 008°50'4 8.0
2018-Jun-11 23:00N 37°42' W 008°49'3 6.5
2018-Jun-11 22:30N 37°45' W 008°50'4 7.7
2018-Jun-11 22:00N 37°49' W 008°51'4 7.1
2018-Jun-11 21:30N 37°52' W 008°51'4 8.1
2018-Jun-11 21:00N 37°56' W 008°52'1 1.9
2018-Jun-11 20:31N 37°57' W 008°52'0 0.0
2018-Jun-11 20:01N 37°57' W 008°52'0 0.0
2018-Jun-11 19:30N 37°57' W 008°52'0 0.0
2018-Jun-11 19:00N 37°57' W 008°52'0 0.0
2018-Jun-11 18:31N 37°57' W 008°52'0 0.0
2018-Jun-11 18:00N 37°57' W 008°52'0 0.0
2018-Jun-11 17:30N 37°57' W 008°52'0 0.0
2018-Jun-11 17:00N 37°57' W 008°52'0 0.0
2018-Jun-11 16:30N 37°57' W 008°52'0 0.0
2018-Jun-11 16:01N 37°57' W 008°52'0 0.0
2018-Jun-11 15:30N 37°57' W 008°52'0 0.0
2018-Jun-11 15:00N 37°57' W 008°52'0 0.0
2018-Jun-11 14:30N 37°57' W 008°52'0 0.0
2018-Jun-11 14:01N 37°57' W 008°52'0 0.0
2018-Jun-11 13:30N 37°57' W 008°52'0 0.0
2018-Jun-11 13:00N 37°57' W 008°52'0 0.0
2018-Jun-11 12:30N 37°57' W 008°52'0 0.0
2018-Jun-11 12:00N 37°57' W 008°52'0 0.0
2018-Jun-11 11:31N 37°57' W 008°52'0 0.0
2018-Jun-11 11:00N 37°57' W 008°52'0 0.0
2018-Jun-11 10:30N 37°57' W 008°52'0 0.0
2018-Jun-11 10:00N 37°57' W 008°52'  

Dump ship's entire track history